Cabo Rojo Airport


Codes: MDCR/CBJ
Name: Cabo Rojo Airport
City: Cabo Rojo
Country: Dominican Republic
Elevation: 262 ft.
Wikipedia:

Photos at Cabo Rojo Airport


   Photos courtesy of SpottingLog. You can add your own sightings and photos by signing up for a free trial today.



No photos found.

Weather at Cabo Rojo Airport


Time (UTC)DescriptionTempratureWindCloud coverageVisibilityPressureHumidity
17-Jun-2024 06:00Light Rain27°C4 mph, E100%10000m1013hPa78%
17-Jun-2024 09:00Overcast Clouds27°C4 mph, E100%10000m1013hPa78%
17-Jun-2024 12:00Overcast Clouds27°C4 mph, E100%10000m1013hPa74%
17-Jun-2024 15:00Overcast Clouds30°C4 mph, S100%10000m1013hPa61%
17-Jun-2024 18:00Overcast Clouds31°C11 mph, SW100%10000m1012hPa59%
17-Jun-2024 21:00Light Rain29°C4 mph, SW100%10000m1011hPa64%
18-Jun-2024 00:00Light Rain28°C4 mph, NE100%10000m1012hPa71%
18-Jun-2024 03:00Light Rain28°C2 mph, SE100%10000m1013hPa70%
18-Jun-2024 06:00Overcast Clouds27°C2 mph, E100%10000m1012hPa69%
18-Jun-2024 09:00Light Rain27°C2 mph, N100%10000m1011hPa73%
18-Jun-2024 12:00Overcast Clouds28°C2 mph, NE100%10000m1012hPa69%
18-Jun-2024 15:00Overcast Clouds30°C4 mph, SW99%10000m1012hPa62%
18-Jun-2024 18:00Light Rain31°C9 mph, SW92%10000m1011hPa61%
18-Jun-2024 21:00Light Rain30°C4 mph, SW49%10000m1010hPa65%
19-Jun-2024 00:00Light Rain27°C4 mph, N66%10000m1010hPa71%
19-Jun-2024 03:00Light Rain27°C4 mph, SE93%10000m1012hPa78%
19-Jun-2024 06:00Overcast Clouds27°C4 mph, E97%10000m1011hPa73%
19-Jun-2024 09:00Overcast Clouds27°C4 mph, E99%10000m1011hPa71%
19-Jun-2024 12:00Overcast Clouds28°C4 mph, E99%10000m1012hPa65%
19-Jun-2024 15:00Broken Clouds31°C7 mph, SE84%10000m1012hPa58%
19-Jun-2024 18:00Broken Clouds32°C9 mph, SE53%10000m1011hPa54%
19-Jun-2024 21:00Light Rain32°C9 mph, SE47%10000m1010hPa54%
20-Jun-2024 00:00Light Rain29°C13 mph, SE56%10000m1012hPa66%
20-Jun-2024 03:00Light Rain28°C9 mph, E56%10000m1013hPa67%
20-Jun-2024 06:00Broken Clouds28°C7 mph, E74%10000m1012hPa66%
20-Jun-2024 09:00Overcast Clouds28°C9 mph, E100%10000m1011hPa66%
20-Jun-2024 12:00Overcast Clouds28°C7 mph, E100%10000m1013hPa65%
20-Jun-2024 15:00Overcast Clouds30°C0 mph, NE100%10000m1014hPa58%
20-Jun-2024 18:00Light Rain31°C2 mph, S100%10000m1013hPa57%
20-Jun-2024 21:00Light Rain31°C9 mph, E100%10000m1012hPa54%
21-Jun-2024 00:00Overcast Clouds29°C4 mph, E100%10000m1014hPa68%
21-Jun-2024 03:00Overcast Clouds28°C7 mph, E100%10000m1014hPa68%
21-Jun-2024 06:00Overcast Clouds27°C7 mph, E100%10000m1013hPa71%
21-Jun-2024 09:00Overcast Clouds27°C7 mph, E100%10000m1013hPa72%
21-Jun-2024 12:00Overcast Clouds29°C7 mph, E100%10000m1013hPa64%
21-Jun-2024 15:00Broken Clouds32°C7 mph, SE74%10000m1014hPa54%
21-Jun-2024 18:00Broken Clouds33°C4 mph, SE67%10000m1013hPa53%
21-Jun-2024 21:00Overcast Clouds33°C11 mph, SE100%10000m1012hPa46%
22-Jun-2024 00:00Overcast Clouds29°C16 mph, SE100%10000m1013hPa65%
22-Jun-2024 03:00Overcast Clouds28°C9 mph, E100%10000m1015hPa67%